Brashear, Texas
Current Conditions -  °F | °C
As of 2:15 AM on Saturday 25 Oct 2014 (Local Time) from KSLR Reporting Station
Clear Clear  
Wind Chill: 19°   Ceiling: Unl
Heat Index: 19°   Visibility: 10mi
Dew Point: 15°   Wind: 6mph
Humidity: 80%   Direction: 200°SSW
Pressure: 30.13"   Gusts: NA
Location:  33.12°N, 95.73°W
Report Text: KSLR 250715Z AUTO 20005KT 10SM CLR 19/15 A3013 RMK AO2 T01870151
Loading
Personal Weather Stations






























Interactive Weather Map
Tropical Storm Tracking
New forecast layout! Learn more

10-Day Weather Forecast

Advertisements
Track Severe Weather on mobile